createdAt,value
2018-07-14T00:02:00.814Z,9.43
2018-07-14T00:04:28.073Z,6.00
2018-07-14T00:06:55.313Z,7.05
2018-07-14T00:09:22.577Z,5.60
2018-07-14T00:11:49.920Z,7.03
2018-07-14T00:14:17.265Z,7.70
2018-07-14T00:16:44.524Z,6.80
2018-07-14T00:19:11.767Z,7.53
2018-07-14T00:21:39.035Z,6.80
2018-07-14T00:24:06.369Z,7.00
2018-07-14T00:26:33.713Z,5.90
2018-07-14T00:29:00.996Z,8.30
2018-07-14T00:31:28.381Z,8.90
2018-07-14T00:33:55.644Z,7.90
2018-07-14T00:36:22.905Z,7.33
2018-07-14T00:38:50.264Z,10.30
2018-07-14T00:41:17.868Z,9.20
2018-07-14T00:43:45.173Z,6.70
2018-07-14T00:46:12.428Z,6.55
2018-07-14T00:48:39.708Z,8.33
2018-07-14T00:51:07.165Z,7.80
2018-07-14T00:53:34.486Z,7.00
2018-07-14T00:56:01.772Z,8.40
2018-07-14T00:58:29.232Z,11.90
2018-07-14T01:00:56.565Z,8.70
2018-07-14T01:03:23.807Z,8.33
2018-07-14T01:05:51.200Z,7.65
2018-07-14T01:08:18.498Z,8.50
2018-07-14T01:10:45.760Z,8.30
2018-07-14T01:13:12.995Z,12.17
2018-07-14T01:15:40.264Z,8.98
2018-07-14T01:18:07.613Z,7.62
2018-07-14T01:20:35.221Z,6.58
2018-07-14T01:23:02.529Z,9.60
2018-07-14T01:25:29.834Z,8.20
2018-07-14T01:27:57.080Z,7.17
2018-07-14T01:30:24.333Z,9.60
2018-07-14T01:32:51.689Z,7.03
2018-07-14T01:35:18.970Z,9.20
2018-07-14T01:37:46.200Z,8.45
2018-07-14T01:40:13.497Z,8.48
2018-07-14T01:42:40.813Z,9.80
2018-07-14T01:45:08.410Z,9.10
2018-07-14T01:47:36.909Z,7.05
2018-07-14T01:50:04.267Z,7.70
2018-07-14T01:52:31.547Z,6.80
2018-07-14T01:54:58.823Z,7.92
2018-07-14T01:57:26.052Z,9.38
2018-07-14T01:59:53.345Z,5.97
2018-07-14T02:02:20.649Z,7.25
2018-07-14T02:04:47.977Z,8.98
2018-07-14T02:07:15.282Z,8.00
2018-07-14T02:09:42.536Z,7.45
2018-07-14T02:12:09.831Z,7.37
2018-07-14T02:14:37.184Z,10.23
2018-07-14T02:17:04.538Z,8.80
2018-07-14T02:19:31.812Z,8.20
2018-07-14T02:21:59.049Z,7.45
2018-07-14T02:24:26.306Z,6.10
2018-07-14T02:26:53.643Z,8.83
2018-07-14T02:29:20.911Z,8.55
2018-07-14T02:31:48.136Z,8.05
2018-07-14T02:34:15.401Z,5.97
2018-07-14T02:36:42.721Z,7.08
2018-07-14T02:39:09.993Z,7.40
2018-07-14T02:41:37.326Z,8.48
2018-07-14T02:44:05.297Z,7.62
2018-07-14T02:46:32.603Z,8.10
2018-07-14T02:48:59.883Z,6.72
2018-07-14T02:51:27.390Z,8.03
2018-07-14T02:53:54.717Z,6.90
2018-07-14T02:56:22.009Z,8.57
2018-07-14T02:58:49.344Z,8.35
2018-07-14T03:01:16.657Z,11.45
2018-07-14T03:03:43.910Z,8.25
2018-07-14T03:06:11.209Z,7.50
2018-07-14T03:08:38.526Z,8.25
2018-07-14T03:11:05.916Z,7.20
2018-07-14T03:13:33.273Z,8.53
2018-07-14T03:16:00.537Z,6.70
2018-07-14T03:18:27.874Z,9.53
2018-07-14T03:20:55.185Z,7.10
2018-07-14T03:23:22.643Z,6.95
2018-07-14T03:25:50.001Z,9.70
2018-07-14T03:28:17.451Z,8.28
2018-07-14T03:30:45.196Z,6.58
2018-07-14T03:33:12.457Z,6.50
2018-07-14T03:35:39.716Z,5.72
2018-07-14T03:38:07.021Z,7.03
2018-07-14T03:40:34.324Z,7.37
2018-07-14T03:43:01.589Z,6.78
2018-07-14T03:45:28.873Z,6.15
2018-07-14T03:47:56.188Z,11.55
2018-07-14T03:50:30.245Z,5.00
2018-07-14T03:52:57.644Z,12.13
2018-07-14T03:55:24.817Z,4.95
2018-07-14T03:57:52.028Z,5.75
2018-07-14T04:00:19.268Z,7.70
2018-07-14T04:02:46.554Z,6.65
2018-07-14T04:05:13.809Z,6.72
2018-07-14T04:07:41.104Z,6.03
2018-07-14T04:10:08.413Z,8.90
2018-07-14T04:12:35.813Z,6.10
2018-07-14T04:15:03.132Z,5.53
2018-07-14T04:17:30.439Z,7.70
2018-07-14T04:19:57.761Z,9.28
2018-07-14T04:22:25.031Z,4.90
2018-07-14T04:24:52.325Z,6.87
2018-07-14T04:27:19.548Z,6.35
2018-07-14T04:29:46.800Z,8.60
2018-07-14T04:32:14.063Z,5.60
2018-07-14T04:34:41.291Z,6.37
2018-07-14T04:37:08.596Z,6.33
2018-07-14T04:39:35.926Z,6.57
2018-07-14T04:42:03.270Z,6.65
2018-07-14T04:44:30.512Z,5.65
2018-07-14T04:46:57.762Z,6.25
2018-07-14T04:49:25.072Z,6.40
2018-07-14T04:54:26.420Z,8.08
2018-07-14T04:56:53.725Z,6.03
2018-07-14T04:59:20.972Z,4.45
2018-07-14T05:01:48.221Z,5.80
2018-07-14T05:04:15.632Z,4.95
2018-07-14T05:06:42.857Z,7.78
2018-07-14T05:09:10.146Z,4.80
2018-07-14T05:11:37.524Z,5.15
2018-07-14T05:14:04.887Z,4.45
2018-07-14T05:16:32.220Z,5.90
2018-07-14T05:18:59.477Z,8.23
2018-07-14T05:21:26.879Z,4.87
2018-07-14T05:23:54.033Z,2.98
2018-07-14T05:26:21.388Z,5.22
2018-07-14T05:28:48.717Z,4.30
2018-07-14T05:31:16.379Z,4.12
2018-07-14T05:33:43.711Z,4.17
2018-07-14T05:36:10.960Z,4.80
2018-07-14T05:38:38.260Z,4.15
2018-07-14T05:41:05.913Z,4.30
2018-07-14T05:43:33.218Z,4.20
2018-07-14T05:46:00.504Z,3.95
2018-07-14T05:48:27.822Z,5.80
2018-07-14T05:50:55.056Z,4.78
2018-07-14T05:53:22.364Z,5.53
2018-07-14T05:55:49.791Z,4.30
2018-07-14T05:58:17.036Z,4.55
2018-07-14T06:00:44.326Z,3.83
2018-07-14T06:03:11.643Z,4.67
2018-07-14T06:05:38.976Z,6.05
2018-07-14T06:08:06.461Z,4.95
2018-07-14T06:10:33.773Z,5.15
2018-07-14T06:13:01.103Z,4.25
2018-07-14T06:15:28.398Z,3.42
2018-07-14T06:17:55.748Z,3.15
2018-07-14T06:20:23.062Z,5.40
2018-07-14T06:22:50.365Z,3.27
2018-07-14T06:25:17.721Z,2.50
2018-07-14T06:27:45.140Z,3.87
2018-07-14T06:30:12.396Z,4.65
2018-07-14T06:32:40.053Z,4.60
2018-07-14T06:35:07.362Z,4.37
2018-07-14T06:37:35.268Z,3.87
2018-07-14T06:40:02.591Z,5.35
2018-07-14T06:42:29.918Z,3.95
2018-07-14T06:44:57.172Z,3.30
2018-07-14T06:47:24.428Z,5.22
2018-07-14T06:49:51.822Z,4.33
2018-07-14T06:52:19.140Z,3.83
2018-07-14T06:54:46.397Z,6.20
2018-07-14T06:59:40.530Z,5.90
2018-07-14T07:02:07.833Z,4.72
2018-07-14T07:04:35.232Z,3.57
2018-07-14T07:07:02.511Z,2.80
2018-07-14T07:09:29.797Z,3.40
2018-07-14T07:11:57.143Z,4.40
2018-07-14T07:14:24.406Z,4.30
2018-07-14T07:16:51.774Z,5.40
2018-07-14T07:19:19.038Z,5.07
2018-07-14T07:21:46.313Z,3.70
2018-07-14T07:24:13.568Z,2.73
2018-07-14T07:26:40.834Z,2.77
2018-07-14T07:29:08.161Z,3.20
2018-07-14T07:31:35.634Z,4.80
2018-07-14T07:34:03.242Z,3.37
2018-07-14T07:36:30.801Z,3.37
2018-07-14T07:38:58.357Z,2.97
2018-07-14T07:41:25.649Z,3.00
2018-07-14T07:43:52.949Z,7.10
2018-07-14T07:46:20.310Z,3.20
2018-07-14T07:48:47.575Z,2.93
2018-07-14T07:51:14.861Z,3.47
2018-07-14T07:53:42.117Z,3.43
2018-07-14T07:56:09.436Z,4.50
2018-07-14T07:58:36.778Z,2.37
2018-07-14T08:01:22.113Z,2.97
2018-07-14T08:03:49.417Z,6.53
2018-07-14T08:06:16.705Z,3.90
2018-07-14T08:08:44.107Z,4.63
2018-07-14T08:11:11.380Z,5.90
2018-07-14T08:13:38.744Z,1.80
2018-07-14T08:16:06.139Z,5.00
2018-07-14T08:18:33.587Z,2.80
2018-07-14T08:21:00.915Z,8.07
2018-07-14T08:23:28.236Z,6.83
2018-07-14T08:25:55.540Z,2.23
2018-07-14T08:28:22.785Z,3.73
2018-07-14T08:30:50.089Z,2.63
2018-07-14T08:33:17.394Z,3.53
2018-07-14T08:35:45.791Z,10.13
2018-07-14T08:38:13.239Z,2.10
2018-07-14T08:40:40.591Z,4.53
2018-07-14T08:43:07.939Z,5.57
2018-07-14T08:45:35.384Z,2.63
2018-07-14T08:48:02.845Z,2.33
2018-07-14T08:50:30.196Z,2.90
2018-07-14T08:52:57.448Z,5.55
2018-07-14T08:55:24.716Z,2.58
2018-07-14T08:57:52.068Z,4.07
2018-07-14T09:00:19.380Z,2.52
2018-07-14T09:02:46.674Z,2.47
2018-07-14T09:05:13.925Z,3.20
2018-07-14T09:07:41.153Z,4.63
2018-07-14T09:10:08.541Z,4.67
2018-07-14T09:12:35.988Z,2.85
2018-07-14T09:15:03.298Z,4.55
2018-07-14T09:17:30.591Z,2.77
2018-07-14T09:19:57.870Z,4.10
2018-07-14T09:22:25.180Z,4.03
2018-07-14T09:24:52.566Z,5.90
2018-07-14T09:27:19.819Z,3.85
2018-07-14T09:29:47.105Z,5.13
2018-07-14T09:34:41.769Z,2.20
2018-07-14T09:37:09.045Z,2.67
2018-07-14T09:39:36.390Z,5.58
2018-07-14T09:42:03.696Z,2.90
2018-07-14T09:44:31.095Z,3.52
2018-07-14T09:46:58.497Z,3.00
2018-07-14T09:49:26.442Z,5.10
2018-07-14T09:51:53.851Z,3.75
2018-07-14T09:54:21.469Z,2.20
2018-07-14T09:56:48.789Z,5.70
2018-07-14T09:59:16.119Z,3.87
2018-07-14T10:01:43.501Z,2.50
2018-07-14T10:04:10.901Z,3.98
2018-07-14T10:06:38.461Z,4.40
2018-07-14T10:09:06.234Z,4.20
2018-07-14T10:11:33.589Z,2.75
2018-07-14T10:14:00.939Z,3.50
2018-07-14T10:16:28.242Z,3.27
2018-07-14T10:18:55.695Z,2.90
2018-07-14T10:21:22.994Z,5.28
2018-07-14T10:23:50.278Z,3.67
2018-07-14T10:26:17.863Z,3.00
2018-07-14T10:28:45.169Z,3.70
2018-07-14T10:31:12.469Z,3.35
2018-07-14T10:33:39.872Z,3.83
2018-07-14T10:36:07.192Z,3.50
2018-07-14T10:38:34.599Z,3.35
2018-07-14T10:41:01.887Z,3.12
2018-07-14T10:43:29.233Z,2.65
2018-07-14T10:45:56.542Z,3.75
2018-07-14T10:48:23.837Z,1.77
2018-07-14T10:50:51.209Z,2.00
2018-07-14T10:53:18.501Z,3.13
2018-07-14T10:55:45.831Z,2.10
2018-07-14T10:58:13.526Z,1.60
2018-07-14T11:00:40.870Z,3.70
2018-07-14T11:12:55.430Z,2.12
2018-07-14T11:15:22.921Z,3.03
2018-07-14T11:17:50.217Z,3.83
2018-07-14T11:20:17.499Z,9.33
2018-07-14T11:22:44.825Z,6.37
2018-07-14T11:25:12.062Z,9.27
2018-07-14T11:27:39.461Z,6.25
2018-07-14T11:30:06.925Z,4.92
2018-07-14T11:32:34.216Z,3.52
2018-07-14T11:35:01.506Z,4.23
2018-07-14T11:37:28.776Z,6.75
2018-07-14T11:39:56.078Z,6.72
2018-07-14T11:42:23.691Z,3.20
2018-07-14T11:44:50.991Z,5.45
2018-07-14T11:47:18.257Z,2.87
2018-07-14T11:49:45.534Z,3.85
2018-07-14T11:52:12.801Z,3.98
2018-07-14T11:54:40.113Z,2.80
2018-07-14T11:57:07.496Z,5.78
2018-07-14T11:59:34.874Z,3.95
2018-07-14T12:02:02.263Z,2.40
2018-07-14T12:04:29.520Z,3.22
2018-07-14T12:06:56.928Z,3.50
2018-07-14T12:09:24.252Z,1.80
2018-07-14T12:11:51.688Z,2.52
2018-07-14T12:14:18.960Z,2.75
2018-07-14T12:16:46.244Z,5.40
2018-07-14T12:19:13.568Z,3.35
2018-07-14T12:21:40.885Z,2.30
2018-07-14T12:24:08.210Z,3.00
2018-07-14T12:26:35.533Z,1.50
2018-07-14T12:29:02.880Z,4.63
2018-07-14T12:31:30.216Z,2.35
2018-07-14T12:33:57.760Z,2.60
2018-07-14T12:36:25.456Z,2.33
2018-07-14T12:38:52.852Z,2.10
2018-07-14T12:41:20.147Z,2.90
2018-07-14T12:43:47.463Z,3.37
2018-07-14T12:46:14.777Z,4.90
2018-07-14T12:48:42.121Z,1.40
2018-07-14T13:08:17.353Z,3.50
2018-07-14T13:10:44.640Z,3.37
2018-07-14T13:13:11.893Z,3.45
2018-07-14T13:15:39.460Z,2.30
2018-07-14T13:18:06.873Z,4.17
2018-07-14T13:20:34.190Z,2.77
2018-07-14T13:23:01.472Z,3.03
2018-07-14T13:25:29.527Z,2.10
2018-07-14T13:27:56.778Z,5.23
2018-07-14T13:30:24.053Z,2.93
2018-07-14T13:32:51.534Z,2.07
2018-07-14T13:35:18.791Z,4.20
2018-07-14T13:37:46.070Z,3.30
2018-07-14T13:40:13.410Z,1.60
2018-07-14T13:42:40.720Z,2.50
2018-07-14T13:45:08.048Z,2.70
2018-07-14T13:47:35.396Z,2.33
2018-07-14T15:05:55.062Z,3.65
2018-07-14T15:08:22.454Z,4.90
2018-07-14T15:10:49.774Z,6.00
2018-07-14T15:13:17.130Z,5.60
2018-07-14T15:15:44.486Z,2.60
2018-07-14T15:18:11.810Z,1.30
2018-07-14T15:20:39.127Z,2.65
2018-07-14T15:23:06.574Z,7.50
2018-07-14T15:25:33.900Z,2.20
2018-07-14T15:28:01.200Z,3.20
2018-07-14T15:30:28.511Z,1.42
2018-07-14T15:32:55.892Z,1.50
2018-07-14T15:35:23.086Z,3.67
2018-07-14T15:37:50.451Z,3.80
2018-07-14T15:40:17.653Z,2.70
2018-07-14T15:42:44.925Z,5.30
2018-07-14T15:45:12.229Z,3.95
2018-07-14T15:47:39.555Z,2.62
2018-07-14T15:50:07.036Z,1.85
2018-07-14T15:52:34.938Z,3.87
2018-07-14T15:55:02.231Z,3.00
2018-07-14T15:57:29.691Z,3.80
2018-07-14T16:01:51.774Z,3.77
2018-07-14T16:04:19.056Z,5.45
2018-07-14T16:06:46.380Z,5.70
2018-07-14T16:09:13.680Z,4.67
2018-07-14T16:11:40.942Z,6.47
2018-07-14T16:14:08.297Z,3.70
2018-07-14T16:16:35.594Z,2.52
2018-07-14T16:19:02.949Z,8.78
2018-07-14T16:21:30.240Z,9.88
2018-07-14T16:23:57.519Z,7.08
2018-07-14T16:26:24.918Z,5.85
2018-07-14T16:28:52.269Z,5.23
2018-07-14T16:31:19.584Z,10.25
2018-07-14T16:33:46.872Z,10.18
2018-07-14T16:36:14.335Z,5.47
2018-07-14T16:38:41.753Z,6.20
2018-07-14T16:41:09.004Z,4.13
2018-07-14T16:43:36.687Z,2.33
2018-07-14T16:46:04.114Z,1.57
2018-07-14T16:48:31.860Z,2.17
2018-07-14T16:50:59.663Z,2.73
2018-07-14T16:53:26.992Z,3.30
2018-07-14T16:55:54.315Z,2.80
2018-07-14T16:58:22.553Z,10.83
2018-07-14T17:00:50.029Z,8.43
2018-07-14T17:03:17.392Z,10.53
2018-07-14T17:05:44.688Z,9.20
2018-07-14T17:08:11.996Z,3.90
2018-07-14T17:10:39.537Z,2.53
2018-07-14T17:13:06.913Z,1.63
2018-07-14T17:15:34.281Z,2.17
2018-07-14T17:18:01.718Z,4.37
2018-07-14T18:06:58.901Z,2.23
2018-07-14T18:09:26.141Z,2.20
2018-07-14T18:11:53.421Z,1.90
2018-07-14T18:14:20.754Z,3.05
2018-07-14T18:16:48.046Z,2.67
2018-07-14T18:19:15.345Z,1.82
2018-07-14T18:21:42.668Z,2.00
2018-07-14T18:24:10.169Z,6.40
2018-07-14T18:26:37.517Z,4.45
2018-07-14T18:29:04.871Z,2.42
2018-07-14T18:31:32.194Z,3.72
2018-07-14T18:33:59.478Z,8.70
2018-07-14T18:36:26.856Z,3.17
2018-07-14T18:38:54.156Z,3.40
2018-07-14T18:41:21.432Z,4.62
2018-07-14T18:43:48.708Z,2.60
2018-07-14T18:46:16.193Z,2.70
2018-07-14T18:48:43.496Z,2.75
2018-07-14T18:51:10.745Z,4.03
2018-07-14T18:53:38.413Z,5.60
2018-07-14T18:56:05.759Z,7.92
2018-07-14T18:58:33.028Z,4.73
2018-07-14T19:01:00.320Z,8.10
2018-07-14T19:03:27.724Z,9.55
2018-07-14T19:05:55.074Z,7.70
2018-07-14T19:08:22.328Z,6.77
2018-07-14T19:10:49.589Z,3.67
2018-07-14T19:13:16.872Z,5.35
2018-07-14T19:15:45.060Z,5.37
2018-07-14T19:18:12.425Z,7.33
2018-07-14T19:20:39.655Z,8.10
2018-07-14T19:23:06.975Z,5.10
2018-07-14T19:25:34.212Z,16.35
2018-07-14T19:28:01.448Z,8.58
2018-07-14T19:30:28.725Z,16.30
2018-07-14T19:32:55.973Z,11.38
2018-07-14T19:35:23.226Z,8.03
2018-07-14T19:37:50.556Z,4.40
2018-07-14T19:40:17.831Z,5.80
2018-07-14T19:42:45.047Z,4.28
2018-07-14T19:45:12.336Z,2.90
2018-07-14T19:47:39.852Z,5.28
2018-07-14T19:50:10.381Z,3.27
2018-07-14T19:52:40.145Z,6.50
2018-07-14T19:55:08.323Z,4.35
2018-07-14T19:57:35.709Z,5.17
2018-07-14T20:00:03.387Z,4.40
2018-07-14T20:02:30.682Z,7.58
2018-07-14T20:05:17.743Z,5.53
2018-07-14T20:07:45.053Z,9.67
2018-07-14T20:10:12.442Z,5.87
2018-07-14T20:12:39.911Z,7.37
2018-07-14T20:15:07.224Z,6.90
2018-07-14T20:17:34.522Z,5.30
2018-07-14T20:20:01.819Z,6.90
2018-07-14T20:22:29.117Z,8.83
2018-07-14T20:24:56.404Z,10.13
2018-07-14T20:27:23.671Z,5.78
2018-07-14T20:29:51.014Z,5.50
2018-07-14T20:32:18.342Z,5.75
2018-07-14T20:34:45.635Z,5.40
2018-07-14T20:37:12.926Z,8.65
2018-07-14T20:39:40.664Z,7.00
2018-07-14T20:42:08.047Z,5.90
2018-07-14T20:44:35.412Z,5.58
2018-07-14T20:47:02.949Z,5.65
2018-07-14T20:49:30.200Z,5.30
2018-07-14T20:51:57.449Z,5.53
2018-07-14T20:54:24.716Z,4.95
2018-07-14T20:56:52.216Z,5.47
2018-07-14T20:59:19.516Z,5.67
2018-07-14T21:01:46.822Z,6.25
2018-07-14T21:04:14.093Z,6.80
2018-07-14T21:06:41.386Z,3.98
2018-07-14T21:09:08.703Z,8.33
2018-07-14T21:11:36.011Z,4.10
2018-07-14T21:14:03.494Z,3.93
2018-07-14T21:16:30.805Z,5.70
2018-07-14T21:18:58.233Z,4.70
2018-07-14T21:21:25.609Z,4.25
2018-07-14T21:23:52.859Z,4.53
2018-07-14T21:26:20.295Z,6.40
2018-07-14T21:28:47.601Z,5.85
2018-07-14T21:31:14.854Z,6.70
2018-07-14T21:33:42.117Z,6.25
2018-07-14T21:36:09.362Z,3.98
2018-07-14T21:38:36.616Z,5.85
2018-07-14T21:41:03.909Z,4.40
2018-07-14T21:43:31.301Z,3.17
2018-07-14T21:45:58.564Z,5.60
2018-07-14T21:48:25.945Z,7.40
2018-07-14T21:50:53.177Z,5.72
2018-07-14T21:53:20.424Z,4.22
2018-07-14T21:55:47.729Z,3.90
2018-07-14T21:58:15.058Z,5.70
2018-07-14T22:00:54.733Z,7.62
2018-07-14T22:07:38.786Z,7.00
2018-07-14T22:10:06.185Z,6.10
2018-07-14T22:12:33.847Z,5.20
2018-07-14T22:15:01.364Z,6.15
2018-07-14T22:17:28.423Z,6.17
2018-07-14T22:19:55.705Z,7.60
2018-07-14T22:22:22.999Z,5.62
2018-07-14T22:24:50.272Z,7.28
2018-07-14T22:27:17.517Z,6.35
2018-07-14T22:29:44.786Z,7.00
2018-07-14T22:32:12.096Z,6.90
2018-07-14T22:34:39.387Z,6.12
2018-07-14T22:37:06.716Z,7.33
2018-07-14T22:39:33.990Z,9.80
2018-07-14T22:42:01.204Z,7.83
2018-07-14T22:44:28.798Z,7.47
2018-07-14T22:46:56.020Z,6.40
2018-07-14T22:49:23.228Z,6.65
2018-07-14T22:51:50.520Z,7.33
2018-07-14T22:54:17.718Z,6.87
2018-07-14T22:56:44.967Z,5.43
2018-07-14T22:59:12.270Z,7.12
2018-07-14T23:01:39.651Z,9.00
2018-07-14T23:04:06.907Z,6.75
2018-07-14T23:06:34.234Z,9.15
2018-07-14T23:09:01.459Z,6.53
2018-07-14T23:11:28.744Z,8.70
2018-07-14T23:13:56.022Z,9.03
2018-07-14T23:16:23.395Z,7.28
2018-07-14T23:18:50.750Z,6.00
2018-07-14T23:21:18.317Z,5.00
2018-07-14T23:23:45.946Z,7.30
2018-07-14T23:26:13.250Z,8.50
2018-07-14T23:28:40.517Z,9.20
2018-07-14T23:31:07.908Z,6.58
2018-07-14T23:33:35.221Z,7.37
2018-07-14T23:36:02.517Z,6.15
2018-07-14T23:38:29.788Z,7.10
2018-07-14T23:40:57.068Z,7.07
2018-07-14T23:43:24.320Z,9.80
2018-07-14T23:45:51.568Z,6.87
2018-07-14T23:48:19.294Z,8.60
2018-07-14T23:50:46.583Z,8.55
2018-07-14T23:53:13.840Z,9.78
2018-07-14T23:55:41.160Z,7.50
2018-07-14T23:58:08.509Z,6.17
